sensor_id;sensor_type;location;lat;lon;timestamp;P1;durP1;ratioP1;P2;durP2;ratioP2
39930;SDS011;26635;-35.248;149.138;2024-03-29T00:00:53;7.65;;;4.95;;
39930;SDS011;26635;-35.248;149.138;2024-03-29T00:03:22;6.45;;;5.13;;
39930;SDS011;26635;-35.248;149.138;2024-03-29T00:05:52;5.97;;;4.30;;
39930;SDS011;26635;-35.248;149.138;2024-03-29T00:08:22;5.55;;;4.93;;
39930;SDS011;26635;-35.248;149.138;2024-03-29T00:10:52;4.38;;;3.95;;
39930;SDS011;26635;-35.248;149.138;2024-03-29T00:13:22;9.00;;;5.53;;
39930;SDS011;26635;-35.248;149.138;2024-03-29T00:15:52;6.60;;;4.70;;
39930;SDS011;26635;-35.248;149.138;2024-03-29T00:18:21;8.52;;;5.07;;
39930;SDS011;26635;-35.248;149.138;2024-03-29T00:20:52;6.82;;;4.55;;
39930;SDS011;26635;-35.248;149.138;2024-03-29T00:23:22;6.25;;;4.88;;
39930;SDS011;26635;-35.248;149.138;2024-03-29T00:25:52;6.78;;;4.50;;
39930;SDS011;26635;-35.248;149.138;2024-03-29T00:28:24;7.22;;;4.50;;
39930;SDS011;26635;-35.248;149.138;2024-03-29T00:30:55;7.78;;;5.30;;
39930;SDS011;26635;-35.248;149.138;2024-03-29T00:33:23;6.00;;;4.47;;
39930;SDS011;26635;-35.248;149.138;2024-03-29T00:35:52;6.18;;;4.97;;
39930;SDS011;26635;-35.248;149.138;2024-03-29T00:38:23;7.75;;;4.93;;
39930;SDS011;26635;-35.248;149.138;2024-03-29T00:40:54;5.65;;;4.15;;
39930;SDS011;26635;-35.248;149.138;2024-03-29T00:43:22;10.00;;;5.97;;
39930;SDS011;26635;-35.248;149.138;2024-03-29T00:45:52;6.75;;;4.63;;
39930;SDS011;26635;-35.248;149.138;2024-03-29T00:48:20;8.95;;;4.45;;
39930;SDS011;26635;-35.248;149.138;2024-03-29T00:50:49;6.13;;;4.95;;
39930;SDS011;26635;-35.248;149.138;2024-03-29T00:53:17;5.63;;;4.50;;
39930;SDS011;26635;-35.248;149.138;2024-03-29T00:55:47;6.80;;;4.78;;
39930;SDS011;26635;-35.248;149.138;2024-03-29T00:58:16;6.38;;;4.70;;
39930;SDS011;26635;-35.248;149.138;2024-03-29T01:00:44;6.20;;;4.32;;
39930;SDS011;26635;-35.248;149.138;2024-03-29T01:03:13;8.00;;;5.28;;
39930;SDS011;26635;-35.248;149.138;2024-03-29T01:05:42;5.57;;;5.00;;
39930;SDS011;26635;-35.248;149.138;2024-03-29T01:08:10;8.13;;;4.55;;
39930;SDS011;26635;-35.248;149.138;2024-03-29T01:10:38;6.53;;;4.78;;
39930;SDS011;26635;-35.248;149.138;2024-03-29T01:13:07;5.18;;;4.57;;
39930;SDS011;26635;-35.248;149.138;2024-03-29T01:15:36;8.48;;;4.68;;
39930;SDS011;26635;-35.248;149.138;2024-03-29T01:18:06;7.50;;;4.55;;
39930;SDS011;26635;-35.248;149.138;2024-03-29T01:20:36;5.53;;;4.45;;
39930;SDS011;26635;-35.248;149.138;2024-03-29T01:23:05;5.28;;;4.20;;
39930;SDS011;26635;-35.248;149.138;2024-03-29T01:25:34;7.43;;;4.55;;
39930;SDS011;26635;-35.248;149.138;2024-03-29T01:28:03;5.40;;;4.45;;
39930;SDS011;26635;-35.248;149.138;2024-03-29T01:30:33;8.32;;;5.18;;
39930;SDS011;26635;-35.248;149.138;2024-03-29T01:33:01;5.30;;;4.45;;
39930;SDS011;26635;-35.248;149.138;2024-03-29T01:35:31;6.43;;;4.43;;
39930;SDS011;26635;-35.248;149.138;2024-03-29T01:38:01;5.90;;;4.47;;
39930;SDS011;26635;-35.248;149.138;2024-03-29T01:40:30;8.02;;;4.93;;
39930;SDS011;26635;-35.248;149.138;2024-03-29T01:42:58;6.65;;;4.53;;
39930;SDS011;26635;-35.248;149.138;2024-03-29T01:45:29;6.55;;;4.63;;
39930;SDS011;26635;-35.248;149.138;2024-03-29T01:47:58;7.60;;;4.70;;
39930;SDS011;26635;-35.248;149.138;2024-03-29T01:50:26;5.38;;;4.57;;
39930;SDS011;26635;-35.248;149.138;2024-03-29T01:52:55;5.82;;;5.22;;
39930;SDS011;26635;-35.248;149.138;2024-03-29T01:55:25;6.45;;;5.15;;
39930;SDS011;26635;-35.248;149.138;2024-03-29T01:57:53;8.43;;;6.10;;
39930;SDS011;26635;-35.248;149.138;2024-03-29T02:00:22;9.43;;;4.63;;
39930;SDS011;26635;-35.248;149.138;2024-03-29T02:02:51;6.35;;;4.88;;
39930;SDS011;26635;-35.248;149.138;2024-03-29T02:05:20;5.75;;;4.15;;
39930;SDS011;26635;-35.248;149.138;2024-03-29T02:07:48;5.93;;;4.40;;
39930;SDS011;26635;-35.248;149.138;2024-03-29T02:10:18;5.85;;;4.18;;
39930;SDS011;26635;-35.248;149.138;2024-03-29T02:12:48;8.82;;;4.70;;
39930;SDS011;26635;-35.248;149.138;2024-03-29T02:15:16;6.70;;;5.18;;
39930;SDS011;26635;-35.248;149.138;2024-03-29T02:17:44;5.25;;;4.47;;
39930;SDS011;26635;-35.248;149.138;2024-03-29T02:20:13;5.22;;;4.53;;
39930;SDS011;26635;-35.248;149.138;2024-03-29T02:22:45;9.25;;;5.32;;
39930;SDS011;26635;-35.248;149.138;2024-03-29T02:25:21;6.68;;;6.07;;
39930;SDS011;26635;-35.248;149.138;2024-03-29T02:27:50;6.47;;;5.80;;
39930;SDS011;26635;-35.248;149.138;2024-03-29T02:30:20;8.80;;;6.00;;
39930;SDS011;26635;-35.248;149.138;2024-03-29T02:32:49;6.95;;;6.25;;
39930;SDS011;26635;-35.248;149.138;2024-03-29T02:35:18;6.22;;;5.63;;
39930;SDS011;26635;-35.248;149.138;2024-03-29T02:37:46;7.38;;;6.55;;
39930;SDS011;26635;-35.248;149.138;2024-03-29T02:40:14;7.57;;;6.15;;
39930;SDS011;26635;-35.248;149.138;2024-03-29T02:42:45;8.73;;;6.97;;
39930;SDS011;26635;-35.248;149.138;2024-03-29T02:45:16;13.85;;;11.23;;
39930;SDS011;26635;-35.248;149.138;2024-03-29T02:47:46;10.30;;;9.07;;
39930;SDS011;26635;-35.248;149.138;2024-03-29T02:50:15;11.70;;;9.30;;
39930;SDS011;26635;-35.248;149.138;2024-03-29T02:52:43;12.05;;;9.20;;
39930;SDS011;26635;-35.248;149.138;2024-03-29T02:55:12;17.33;;;9.20;;
39930;SDS011;26635;-35.248;149.138;2024-03-29T02:57:40;10.20;;;9.20;;
39930;SDS011;26635;-35.248;149.138;2024-03-29T03:00:08;10.55;;;8.88;;
39930;SDS011;26635;-35.248;149.138;2024-03-29T03:02:39;11.00;;;9.68;;
39930;SDS011;26635;-35.248;149.138;2024-03-29T03:05:07;10.65;;;9.55;;
39930;SDS011;26635;-35.248;149.138;2024-03-29T03:07:36;13.07;;;10.38;;
39930;SDS011;26635;-35.248;149.138;2024-03-29T03:10:22;12.32;;;9.40;;
39930;SDS011;26635;-35.248;149.138;2024-03-29T03:13:08;14.15;;;11.55;;
39930;SDS011;26635;-35.248;149.138;2024-03-29T03:15:38;14.68;;;12.48;;
39930;SDS011;26635;-35.248;149.138;2024-03-29T03:18:07;16.23;;;14.63;;
39930;SDS011;26635;-35.248;149.138;2024-03-29T03:20:37;14.27;;;12.77;;
39930;SDS011;26635;-35.248;149.138;2024-03-29T03:23:06;10.85;;;9.60;;
39930;SDS011;26635;-35.248;149.138;2024-03-29T03:25:36;9.07;;;8.15;;
39930;SDS011;26635;-35.248;149.138;2024-03-29T03:28:05;10.95;;;8.68;;
39930;SDS011;26635;-35.248;149.138;2024-03-29T03:30:39;9.60;;;8.65;;
39930;SDS011;26635;-35.248;149.138;2024-03-29T03:33:09;9.40;;;8.50;;
39930;SDS011;26635;-35.248;149.138;2024-03-29T03:35:38;12.13;;;9.93;;
39930;SDS011;26635;-35.248;149.138;2024-03-29T03:38:09;11.95;;;10.45;;
39930;SDS011;26635;-35.248;149.138;2024-03-29T03:40:39;10.25;;;9.32;;
39930;SDS011;26635;-35.248;149.138;2024-03-29T03:43:08;13.75;;;11.55;;
39930;SDS011;26635;-35.248;149.138;2024-03-29T03:45:38;19.50;;;17.40;;
39930;SDS011;26635;-35.248;149.138;2024-03-29T03:48:09;16.35;;;14.68;;
39930;SDS011;26635;-35.248;149.138;2024-03-29T03:50:39;20.42;;;17.40;;
39930;SDS011;26635;-35.248;149.138;2024-03-29T03:53:09;13.90;;;12.20;;
39930;SDS011;26635;-35.248;149.138;2024-03-29T03:55:40;14.52;;;11.70;;
39930;SDS011;26635;-35.248;149.138;2024-03-29T03:58:10;17.83;;;14.93;;
39930;SDS011;26635;-35.248;149.138;2024-03-29T04:00:39;19.70;;;17.60;;
39930;SDS011;26635;-35.248;149.138;2024-03-29T04:03:09;16.63;;;14.48;;
39930;SDS011;26635;-35.248;149.138;2024-03-29T04:05:39;16.63;;;13.77;;
39930;SDS011;26635;-35.248;149.138;2024-03-29T04:08:07;14.45;;;11.65;;
39930;SDS011;26635;-35.248;149.138;2024-03-29T04:10:38;13.35;;;11.88;;
39930;SDS011;26635;-35.248;149.138;2024-03-29T04:13:12;14.05;;;11.82;;
39930;SDS011;26635;-35.248;149.138;2024-03-29T04:15:41;13.98;;;12.05;;
39930;SDS011;26635;-35.248;149.138;2024-03-29T04:18:09;13.05;;;11.65;;
39930;SDS011;26635;-35.248;149.138;2024-03-29T04:20:38;14.95;;;13.38;;
39930;SDS011;26635;-35.248;149.138;2024-03-29T04:23:06;14.57;;;13.07;;
39930;SDS011;26635;-35.248;149.138;2024-03-29T04:25:34;16.33;;;14.00;;
39930;SDS011;26635;-35.248;149.138;2024-03-29T04:28:03;16.13;;;14.52;;
39930;SDS011;26635;-35.248;149.138;2024-03-29T04:30:31;17.20;;;15.40;;
39930;SDS011;26635;-35.248;149.138;2024-03-29T04:33:01;20.25;;;17.15;;
39930;SDS011;26635;-35.248;149.138;2024-03-29T04:35:31;18.33;;;16.50;;
39930;SDS011;26635;-35.248;149.138;2024-03-29T04:38:00;17.58;;;15.82;;
39930;SDS011;26635;-35.248;149.138;2024-03-29T04:40:30;17.35;;;14.85;;
39930;SDS011;26635;-35.248;149.138;2024-03-29T04:43:00;18.42;;;15.80;;
39930;SDS011;26635;-35.248;149.138;2024-03-29T04:45:28;18.40;;;15.45;;
39930;SDS011;26635;-35.248;149.138;2024-03-29T04:47:56;12.85;;;11.35;;
39930;SDS011;26635;-35.248;149.138;2024-03-29T04:50:25;12.43;;;11.20;;
39930;SDS011;26635;-35.248;149.138;2024-03-29T04:52:53;12.30;;;11.00;;
39930;SDS011;26635;-35.248;149.138;2024-03-29T04:55:21;14.73;;;12.95;;
39930;SDS011;26635;-35.248;149.138;2024-03-29T04:57:51;16.08;;;13.23;;
39930;SDS011;26635;-35.248;149.138;2024-03-29T05:00:19;19.70;;;17.40;;
39930;SDS011;26635;-35.248;149.138;2024-03-29T05:02:48;21.27;;;17.95;;
39930;SDS011;26635;-35.248;149.138;2024-03-29T05:05:16;18.40;;;16.15;;
39930;SDS011;26635;-35.248;149.138;2024-03-29T05:07:44;20.45;;;18.27;;
39930;SDS011;26635;-35.248;149.138;2024-03-29T05:10:13;20.65;;;18.55;;
39930;SDS011;26635;-35.248;149.138;2024-03-29T05:12:43;23.30;;;20.77;;
39930;SDS011;26635;-35.248;149.138;2024-03-29T05:15:11;22.38;;;18.13;;
39930;SDS011;26635;-35.248;149.138;2024-03-29T05:17:42;21.50;;;19.40;;
39930;SDS011;26635;-35.248;149.138;2024-03-29T05:20:10;20.83;;;18.60;;
39930;SDS011;26635;-35.248;149.138;2024-03-29T05:22:39;21.23;;;18.13;;
39930;SDS011;26635;-35.248;149.138;2024-03-29T05:25:07;18.15;;;16.25;;
39930;SDS011;26635;-35.248;149.138;2024-03-29T05:27:35;17.15;;;13.88;;
39930;SDS011;26635;-35.248;149.138;2024-03-29T05:30:04;22.60;;;14.90;;
39930;SDS011;26635;-35.248;149.138;2024-03-29T05:32:35;16.33;;;14.63;;
39930;SDS011;26635;-35.248;149.138;2024-03-29T05:35:03;17.25;;;15.52;;
39930;SDS011;26635;-35.248;149.138;2024-03-29T05:37:33;18.85;;;16.95;;
39930;SDS011;26635;-35.248;149.138;2024-03-29T05:40:02;18.45;;;16.55;;
39930;SDS011;26635;-35.248;149.138;2024-03-29T05:42:34;19.13;;;17.13;;
39930;SDS011;26635;-35.248;149.138;2024-03-29T05:45:04;19.33;;;16.30;;
39930;SDS011;26635;-35.248;149.138;2024-03-29T05:47:47;19.20;;;17.30;;
39930;SDS011;26635;-35.248;149.138;2024-03-29T05:50:16;20.63;;;18.48;;
39930;SDS011;26635;-35.248;149.138;2024-03-29T05:52:46;21.58;;;19.30;;
39930;SDS011;26635;-35.248;149.138;2024-03-29T05:55:15;21.45;;;19.20;;
39930;SDS011;26635;-35.248;149.138;2024-03-29T05:57:44;23.40;;;20.50;;
39930;SDS011;26635;-35.248;149.138;2024-03-29T06:00:14;20.98;;;18.80;;
39930;SDS011;26635;-35.248;149.138;2024-03-29T06:02:43;23.38;;;20.40;;
39930;SDS011;26635;-35.248;149.138;2024-03-29T06:05:12;22.45;;;20.02;;
39930;SDS011;26635;-35.248;149.138;2024-03-29T06:07:41;24.13;;;21.58;;
39930;SDS011;26635;-35.248;149.138;2024-03-29T06:10:10;24.75;;;22.25;;
39930;SDS011;26635;-35.248;149.138;2024-03-29T06:12:40;23.42;;;21.23;;
39930;SDS011;26635;-35.248;149.138;2024-03-29T06:15:09;24.08;;;21.55;;
39930;SDS011;26635;-35.248;149.138;2024-03-29T06:17:55;25.25;;;22.60;;
39930;SDS011;26635;-35.248;149.138;2024-03-29T06:20:24;24.73;;;22.13;;
39930;SDS011;26635;-35.248;149.138;2024-03-29T06:22:52;25.13;;;22.42;;
39930;SDS011;26635;-35.248;149.138;2024-03-29T06:25:20;23.08;;;19.48;;
39930;SDS011;26635;-35.248;149.138;2024-03-29T06:27:49;21.67;;;18.73;;
39930;SDS011;26635;-35.248;149.138;2024-03-29T06:30:17;20.25;;;18.02;;
39930;SDS011;26635;-35.248;149.138;2024-03-29T06:32:46;19.48;;;17.45;;
39930;SDS011;26635;-35.248;149.138;2024-03-29T06:35:14;19.92;;;16.63;;
39930;SDS011;26635;-35.248;149.138;2024-03-29T06:37:43;19.55;;;17.55;;
39930;SDS011;26635;-35.248;149.138;2024-03-29T06:40:11;21.15;;;18.90;;
39930;SDS011;26635;-35.248;149.138;2024-03-29T06:42:40;21.13;;;18.92;;
39930;SDS011;26635;-35.248;149.138;2024-03-29T06:45:08;20.98;;;18.75;;
39930;SDS011;26635;-35.248;149.138;2024-03-29T06:47:36;22.00;;;19.70;;
39930;SDS011;26635;-35.248;149.138;2024-03-29T06:50:05;22.48;;;20.02;;
39930;SDS011;26635;-35.248;149.138;2024-03-29T06:52:35;22.80;;;20.60;;
39930;SDS011;26635;-35.248;149.138;2024-03-29T06:55:05;22.45;;;20.05;;
39930;SDS011;26635;-35.248;149.138;2024-03-29T06:57:35;23.05;;;20.67;;
39930;SDS011;26635;-35.248;149.138;2024-03-29T07:00:03;23.13;;;20.73;;
39930;SDS011;26635;-35.248;149.138;2024-03-29T07:02:33;21.60;;;19.38;;
39930;SDS011;26635;-35.248;149.138;2024-03-29T07:05:03;20.40;;;18.15;;
39930;SDS011;26635;-35.248;149.138;2024-03-29T07:07:35;22.00;;;19.70;;
39930;SDS011;26635;-35.248;149.138;2024-03-29T07:10:09;22.35;;;19.95;;
39930;SDS011;26635;-35.248;149.138;2024-03-29T07:12:37;21.58;;;19.48;;
39930;SDS011;26635;-35.248;149.138;2024-03-29T07:15:07;20.70;;;18.60;;
39930;SDS011;26635;-35.248;149.138;2024-03-29T07:17:37;21.52;;;19.33;;
39930;SDS011;26635;-35.248;149.138;2024-03-29T07:20:08;21.30;;;19.02;;
39930;SDS011;26635;-35.248;149.138;2024-03-29T07:22:39;21.77;;;19.20;;
39930;SDS011;26635;-35.248;149.138;2024-03-29T07:25:08;22.52;;;19.50;;
39930;SDS011;26635;-35.248;149.138;2024-03-29T07:27:38;21.92;;;19.67;;
39930;SDS011;26635;-35.248;149.138;2024-03-29T07:30:09;21.98;;;19.65;;
39930;SDS011;26635;-35.248;149.138;2024-03-29T07:32:37;22.77;;;19.60;;
39930;SDS011;26635;-35.248;149.138;2024-03-29T07:35:06;23.83;;;19.58;;
39930;SDS011;26635;-35.248;149.138;2024-03-29T07:37:36;22.95;;;20.35;;
39930;SDS011;26635;-35.248;149.138;2024-03-29T07:40:06;23.50;;;20.65;;
39930;SDS011;26635;-35.248;149.138;2024-03-29T07:42:34;19.30;;;16.45;;
39930;SDS011;26635;-35.248;149.138;2024-03-29T07:45:03;16.98;;;14.23;;
39930;SDS011;26635;-35.248;149.138;2024-03-29T07:47:32;12.57;;;10.75;;
39930;SDS011;26635;-35.248;149.138;2024-03-29T07:50:02;11.10;;;9.15;;
39930;SDS011;26635;-35.248;149.138;2024-03-29T07:52:33;7.95;;;6.82;;
39930;SDS011;26635;-35.248;149.138;2024-03-29T07:55:02;11.02;;;7.47;;
39930;SDS011;26635;-35.248;149.138;2024-03-29T07:57:32;8.40;;;5.72;;
39930;SDS011;26635;-35.248;149.138;2024-03-29T08:00:02;9.60;;;5.43;;
39930;SDS011;26635;-35.248;149.138;2024-03-29T08:02:32;5.80;;;4.68;;
39930;SDS011;26635;-35.248;149.138;2024-03-29T08:05:01;5.85;;;5.25;;
39930;SDS011;26635;-35.248;149.138;2024-03-29T08:07:32;7.07;;;5.05;;
39930;SDS011;26635;-35.248;149.138;2024-03-29T08:10:01;8.82;;;6.55;;
39930;SDS011;26635;-35.248;149.138;2024-03-29T08:12:29;12.38;;;8.38;;
39930;SDS011;26635;-35.248;149.138;2024-03-29T08:14:58;7.97;;;5.85;;
39930;SDS011;26635;-35.248;149.138;2024-03-29T08:17:27;9.93;;;5.50;;
39930;SDS011;26635;-35.248;149.138;2024-03-29T08:19:57;6.72;;;5.57;;
39930;SDS011;26635;-35.248;149.138;2024-03-29T08:22:25;6.22;;;4.55;;
39930;SDS011;26635;-35.248;149.138;2024-03-29T08:24:55;7.50;;;4.68;;
39930;SDS011;26635;-35.248;149.138;2024-03-29T08:27:25;6.53;;;5.15;;
39930;SDS011;26635;-35.248;149.138;2024-03-29T08:29:54;6.63;;;5.60;;
39930;SDS011;26635;-35.248;149.138;2024-03-29T08:32:22;5.95;;;5.30;;
39930;SDS011;26635;-35.248;149.138;2024-03-29T08:34:52;6.05;;;5.45;;
39930;SDS011;26635;-35.248;149.138;2024-03-29T08:37:22;8.98;;;5.68;;
39930;SDS011;26635;-35.248;149.138;2024-03-29T08:39:50;8.40;;;5.32;;
39930;SDS011;26635;-35.248;149.138;2024-03-29T08:42:18;7.85;;;5.35;;
39930;SDS011;26635;-35.248;149.138;2024-03-29T08:44:46;6.93;;;5.15;;
39930;SDS011;26635;-35.248;149.138;2024-03-29T08:47:15;6.00;;;5.40;;
39930;SDS011;26635;-35.248;149.138;2024-03-29T08:49:46;7.97;;;5.82;;
39930;SDS011;26635;-35.248;149.138;2024-03-29T08:52:15;7.65;;;5.53;;
39930;SDS011;26635;-35.248;149.138;2024-03-29T08:54:44;7.88;;;5.63;;
39930;SDS011;26635;-35.248;149.138;2024-03-29T08:57:13;6.22;;;4.93;;
39930;SDS011;26635;-35.248;149.138;2024-03-29T08:59:41;6.80;;;5.35;;
39930;SDS011;26635;-35.248;149.138;2024-03-29T09:02:09;8.15;;;5.70;;
39930;SDS011;26635;-35.248;149.138;2024-03-29T09:04:38;7.30;;;5.03;;
39930;SDS011;26635;-35.248;149.138;2024-03-29T09:07:06;5.57;;;4.97;;
39930;SDS011;26635;-35.248;149.138;2024-03-29T09:09:36;6.97;;;4.80;;
39930;SDS011;26635;-35.248;149.138;2024-03-29T09:12:08;5.65;;;4.72;;
39930;SDS011;26635;-35.248;149.138;2024-03-29T09:14:36;7.88;;;4.90;;
39930;SDS011;26635;-35.248;149.138;2024-03-29T09:17:04;5.07;;;4.22;;
39930;SDS011;26635;-35.248;149.138;2024-03-29T09:19:33;8.05;;;4.90;;
39930;SDS011;26635;-35.248;149.138;2024-03-29T09:22:01;7.45;;;5.22;;
39930;SDS011;26635;-35.248;149.138;2024-03-29T09:24:29;7.75;;;4.78;;
39930;SDS011;26635;-35.248;149.138;2024-03-29T09:27:00;6.90;;;4.80;;
39930;SDS011;26635;-35.248;149.138;2024-03-29T09:29:29;7.03;;;4.88;;
39930;SDS011;26635;-35.248;149.138;2024-03-29T09:31:57;7.40;;;4.45;;
39930;SDS011;26635;-35.248;149.138;2024-03-29T09:34:26;9.10;;;4.22;;
39930;SDS011;26635;-35.248;149.138;2024-03-29T09:36:56;7.15;;;4.70;;
39930;SDS011;26635;-35.248;149.138;2024-03-29T09:39:24;9.82;;;5.18;;
39930;SDS011;26635;-35.248;149.138;2024-03-29T09:41:54;8.52;;;5.25;;
39930;SDS011;26635;-35.248;149.138;2024-03-29T09:44:26;8.90;;;5.57;;
39930;SDS011;26635;-35.248;149.138;2024-03-29T09:47:02;6.88;;;5.30;;
39930;SDS011;26635;-35.248;149.138;2024-03-29T09:49:32;7.72;;;4.90;;
39930;SDS011;26635;-35.248;149.138;2024-03-29T09:52:02;6.70;;;4.60;;
39930;SDS011;26635;-35.248;149.138;2024-03-29T09:54:30;9.30;;;6.75;;
39930;SDS011;26635;-35.248;149.138;2024-03-29T09:57:00;7.35;;;5.13;;
39930;SDS011;26635;-35.248;149.138;2024-03-29T09:59:30;7.00;;;5.50;;
39930;SDS011;26635;-35.248;149.138;2024-03-29T10:02:01;7.60;;;4.85;;
39930;SDS011;26635;-35.248;149.138;2024-03-29T10:04:39;8.90;;;5.72;;
39930;SDS011;26635;-35.248;149.138;2024-03-29T10:07:11;9.55;;;5.85;;
39930;SDS011;26635;-35.248;149.138;2024-03-29T10:09:45;8.23;;;5.38;;
39930;SDS011;26635;-35.248;149.138;2024-03-29T10:12:15;9.40;;;5.28;;
39930;SDS011;26635;-35.248;149.138;2024-03-29T10:14:47;9.93;;;5.70;;
39930;SDS011;26635;-35.248;149.138;2024-03-29T10:17:22;7.53;;;4.95;;
39930;SDS011;26635;-35.248;149.138;2024-03-29T10:19:52;8.85;;;5.47;;
39930;SDS011;26635;-35.248;149.138;2024-03-29T10:22:20;5.97;;;5.18;;
39930;SDS011;26635;-35.248;149.138;2024-03-29T10:24:48;7.45;;;5.53;;
39930;SDS011;26635;-35.248;149.138;2024-03-29T10:27:17;8.73;;;5.22;;
39930;SDS011;26635;-35.248;149.138;2024-03-29T10:29:45;6.97;;;4.90;;
39930;SDS011;26635;-35.248;149.138;2024-03-29T10:32:15;7.13;;;4.80;;
39930;SDS011;26635;-35.248;149.138;2024-03-29T10:34:44;7.95;;;6.05;;
39930;SDS011;26635;-35.248;149.138;2024-03-29T10:37:15;8.57;;;5.13;;
39930;SDS011;26635;-35.248;149.138;2024-03-29T10:39:51;8.18;;;4.85;;
39930;SDS011;26635;-35.248;149.138;2024-03-29T10:42:20;7.00;;;5.10;;
39930;SDS011;26635;-35.248;149.138;2024-03-29T10:44:49;8.45;;;6.30;;
39930;SDS011;26635;-35.248;149.138;2024-03-29T10:47:19;6.78;;;5.25;;
39930;SDS011;26635;-35.248;149.138;2024-03-29T10:49:49;9.65;;;5.25;;
39930;SDS011;26635;-35.248;149.138;2024-03-29T10:52:20;7.50;;;5.20;;
39930;SDS011;26635;-35.248;149.138;2024-03-29T10:54:49;6.90;;;4.78;;
39930;SDS011;26635;-35.248;149.138;2024-03-29T10:57:25;7.65;;;5.40;;
39930;SDS011;26635;-35.248;149.138;2024-03-29T10:59:59;8.93;;;5.30;;
39930;SDS011;26635;-35.248;149.138;2024-03-29T11:03:02;8.02;;;6.03;;
39930;SDS011;26635;-35.248;149.138;2024-03-29T11:05:44;8.05;;;5.38;;
39930;SDS011;26635;-35.248;149.138;2024-03-29T11:08:16;7.93;;;5.32;;
39930;SDS011;26635;-35.248;149.138;2024-03-29T11:10:51;8.43;;;5.20;;
39930;SDS011;26635;-35.248;149.138;2024-03-29T11:15:53;7.88;;;5.20;;
39930;SDS011;26635;-35.248;149.138;2024-03-29T11:18:23;7.00;;;5.57;;
39930;SDS011;26635;-35.248;149.138;2024-03-29T11:20:54;8.45;;;5.30;;
39930;SDS011;26635;-35.248;149.138;2024-03-29T11:23:30;7.82;;;5.20;;
39930;SDS011;26635;-35.248;149.138;2024-03-29T11:25:59;9.10;;;6.38;;
39930;SDS011;26635;-35.248;149.138;2024-03-29T11:28:30;8.82;;;5.95;;
39930;SDS011;26635;-35.248;149.138;2024-03-29T11:31:07;7.65;;;5.68;;
39930;SDS011;26635;-35.248;149.138;2024-03-29T11:36:13;7.78;;;5.35;;
39930;SDS011;26635;-35.248;149.138;2024-03-29T11:38:54;8.35;;;5.25;;
39930;SDS011;26635;-35.248;149.138;2024-03-29T11:41:26;6.22;;;5.32;;
39930;SDS011;26635;-35.248;149.138;2024-03-29T11:43:57;7.93;;;5.18;;
39930;SDS011;26635;-35.248;149.138;2024-03-29T11:46:27;9.15;;;5.68;;
39930;SDS011;26635;-35.248;149.138;2024-03-29T11:49:00;9.13;;;5.70;;
39930;SDS011;26635;-35.248;149.138;2024-03-29T11:51:31;7.40;;;5.72;;
39930;SDS011;26635;-35.248;149.138;2024-03-29T11:54:01;8.52;;;5.35;;
39930;SDS011;26635;-35.248;149.138;2024-03-29T11:56:30;7.68;;;5.22;;
39930;SDS011;26635;-35.248;149.138;2024-03-29T11:58:58;7.78;;;4.85;;
39930;SDS011;26635;-35.248;149.138;2024-03-29T12:01:26;9.00;;;6.13;;
39930;SDS011;26635;-35.248;149.138;2024-03-29T12:03:56;8.95;;;6.32;;
39930;SDS011;26635;-35.248;149.138;2024-03-29T12:06:24;7.50;;;5.97;;
39930;SDS011;26635;-35.248;149.138;2024-03-29T12:08:52;8.18;;;5.65;;
39930;SDS011;26635;-35.248;149.138;2024-03-29T12:11:22;11.48;;;6.50;;
39930;SDS011;26635;-35.248;149.138;2024-03-29T12:13:54;9.02;;;5.95;;
39930;SDS011;26635;-35.248;149.138;2024-03-29T12:16:22;9.07;;;5.85;;
39930;SDS011;26635;-35.248;149.138;2024-03-29T12:18:51;7.72;;;6.00;;
39930;SDS011;26635;-35.248;149.138;2024-03-29T12:21:19;7.18;;;5.32;;
39930;SDS011;26635;-35.248;149.138;2024-03-29T12:23:48;9.13;;;5.50;;
39930;SDS011;26635;-35.248;149.138;2024-03-29T12:26:16;10.05;;;5.65;;
39930;SDS011;26635;-35.248;149.138;2024-03-29T12:28:49;11.15;;;5.93;;
39930;SDS011;26635;-35.248;149.138;2024-03-29T12:31:17;8.48;;;5.53;;
39930;SDS011;26635;-35.248;149.138;2024-03-29T12:33:52;7.95;;;6.97;;
39930;SDS011;26635;-35.248;149.138;2024-03-29T12:36:25;8.23;;;5.83;;
39930;SDS011;26635;-35.248;149.138;2024-03-29T12:38:55;10.65;;;5.43;;
39930;SDS011;26635;-35.248;149.138;2024-03-29T12:41:25;8.60;;;5.57;;
39930;SDS011;26635;-35.248;149.138;2024-03-29T12:43:53;8.52;;;5.25;;
39930;SDS011;26635;-35.248;149.138;2024-03-29T12:46:22;7.30;;;5.68;;
39930;SDS011;26635;-35.248;149.138;2024-03-29T12:48:59;9.63;;;5.35;;
39930;SDS011;26635;-35.248;149.138;2024-03-29T12:51:28;8.57;;;5.43;;
39930;SDS011;26635;-35.248;149.138;2024-03-29T12:54:00;7.32;;;5.07;;
39930;SDS011;26635;-35.248;149.138;2024-03-29T12:56:32;8.00;;;5.32;;
39930;SDS011;26635;-35.248;149.138;2024-03-29T12:59:04;7.93;;;5.43;;
39930;SDS011;26635;-35.248;149.138;2024-03-29T13:01:33;8.77;;;5.57;;
39930;SDS011;26635;-35.248;149.138;2024-03-29T13:04:02;9.70;;;5.60;;
39930;SDS011;26635;-35.248;149.138;2024-03-29T13:06:30;10.38;;;5.10;;
39930;SDS011;26635;-35.248;149.138;2024-03-29T13:08:58;9.23;;;5.57;;
39930;SDS011;26635;-35.248;149.138;2024-03-29T13:11:27;8.95;;;5.68;;
39930;SDS011;26635;-35.248;149.138;2024-03-29T13:13:55;10.57;;;6.10;;
39930;SDS011;26635;-35.248;149.138;2024-03-29T13:16:24;10.00;;;6.03;;
39930;SDS011;26635;-35.248;149.138;2024-03-29T13:18:52;8.23;;;5.72;;
39930;SDS011;26635;-35.248;149.138;2024-03-29T13:21:20;7.50;;;5.90;;
39930;SDS011;26635;-35.248;149.138;2024-03-29T13:23:49;8.57;;;5.72;;
39930;SDS011;26635;-35.248;149.138;2024-03-29T13:26:17;10.13;;;6.38;;
39930;SDS011;26635;-35.248;149.138;2024-03-29T13:28:45;8.80;;;6.53;;
39930;SDS011;26635;-35.248;149.138;2024-03-29T13:31:13;8.18;;;5.78;;
39930;SDS011;26635;-35.248;149.138;2024-03-29T13:33:42;7.63;;;5.45;;
39930;SDS011;26635;-35.248;149.138;2024-03-29T13:36:11;7.70;;;5.55;;
39930;SDS011;26635;-35.248;149.138;2024-03-29T13:38:39;7.97;;;5.88;;
39930;SDS011;26635;-35.248;149.138;2024-03-29T13:41:07;8.52;;;5.90;;
39930;SDS011;26635;-35.248;149.138;2024-03-29T13:43:37;10.43;;;6.60;;
39930;SDS011;26635;-35.248;149.138;2024-03-29T13:46:08;7.10;;;5.93;;
39930;SDS011;26635;-35.248;149.138;2024-03-29T13:48:38;6.70;;;5.60;;
39930;SDS011;26635;-35.248;149.138;2024-03-29T13:51:11;7.55;;;5.75;;
39930;SDS011;26635;-35.248;149.138;2024-03-29T13:53:41;8.55;;;5.45;;
39930;SDS011;26635;-35.248;149.138;2024-03-29T13:56:10;9.32;;;5.60;;
39930;SDS011;26635;-35.248;149.138;2024-03-29T13:58:39;8.55;;;6.50;;
39930;SDS011;26635;-35.248;149.138;2024-03-29T14:01:08;8.68;;;6.00;;
39930;SDS011;26635;-35.248;149.138;2024-03-29T14:03:36;8.52;;;5.75;;
39930;SDS011;26635;-35.248;149.138;2024-03-29T14:06:04;11.38;;;6.60;;
39930;SDS011;26635;-35.248;149.138;2024-03-29T14:08:34;8.80;;;5.85;;
39930;SDS011;26635;-35.248;149.138;2024-03-29T14:11:02;9.90;;;6.47;;
39930;SDS011;26635;-35.248;149.138;2024-03-29T14:13:32;8.23;;;5.68;;
39930;SDS011;26635;-35.248;149.138;2024-03-29T14:16:01;7.18;;;5.90;;
39930;SDS011;26635;-35.248;149.138;2024-03-29T14:18:31;10.32;;;6.07;;
39930;SDS011;26635;-35.248;149.138;2024-03-29T14:21:05;9.15;;;6.32;;